Time;durP1;ratioP1;P1;durP2;ratioP2;P2;SDS_P1;SDS_P2;PMS_P1;PMS_P2;Temp;Humidity;BMP_temperature;BMP_pressure;BME280_temperature;BME280_humidity;BME280_pressure;Samples;Min_cycle;Max_cycle;Signal;HPM_P1;HPM_P2
2023/08/11 00:02:08;;;;;;;0.10;0.10;;;;;;;;;;6125413;23;20056;-92
2023/08/11 00:04:34;;;;;;;0.20;0.20;;;;;;;;;;6076759;23;20470;-92
2023/08/11 00:07:00;;;;;;;0.10;0.10;;;;;;;;;;6077067;23;20014;-93
2023/08/11 00:09:26;;;;;;;0.10;0.10;;;;;;;;;;6100820;23;20010;-93
2023/08/11 00:11:52;;;;;;;0.10;0.10;;;;;;;;;;6124776;23;20092;-92
2023/08/11 00:14:18;;;;;;;0.10;0.10;;;;;;;;;;6076583;23;20109;-93
2023/08/11 00:16:44;;;;;;;0.10;0.10;;;;;;;;;;6076599;23;20017;-91
2023/08/11 00:19:10;;;;;;;0.17;0.17;;;;;;;;;;6124859;23;20361;-92
2023/08/11 00:21:36;;;;;;;0.10;0.10;;;;;;;;;;6149003;23;20021;-92
2023/08/11 00:24:03;;;;;;;0.10;0.10;;;;;;;;;;6076259;23;20118;-92
2023/08/11 00:26:30;;;;;;;0.10;0.10;;;;;;;;;;6124926;23;20332;-90
2023/08/11 00:28:56;;;;;;;0.10;0.10;;;;;;;;;;6076953;23;20093;-91
2023/08/11 00:31:22;;;;;;;0.10;0.10;;;;;;;;;;6124968;23;20112;-92
2023/08/11 00:33:51;;;;;;;0.10;0.10;;;;;;;;;;6076452;23;20065;-92
2023/08/11 00:36:17;;;;;;;0.10;0.10;;;;;;;;;;6077019;23;20014;-92
2023/08/11 00:38:43;;;;;;;0.10;0.10;;;;;;;;;;6076245;23;20094;-92
2023/08/11 00:41:10;;;;;;;0.10;0.10;;;;;;;;;;6076152;23;20026;-93
2023/08/11 00:43:36;;;;;;;0.10;0.10;;;;;;;;;;6076787;23;20017;-91
2023/08/11 00:46:05;;;;;;;0.10;0.10;;;;;;;;;;6124620;23;20028;-92
2023/08/11 00:48:31;;;;;;;0.10;0.10;;;;;;;;;;6124572;23;20440;-91
2023/08/11 00:50:57;;;;;;;0.10;0.10;;;;;;;;;;6100241;23;20014;-92
2023/08/11 00:53:24;;;;;;;0.10;0.10;;;;;;;;;;6124412;23;20005;-90
2023/08/11 00:55:50;;;;;;;0.10;0.10;;;;;;;;;;6124351;23;20174;-92
2023/08/11 00:58:17;;;;;;;0.10;0.10;;;;;;;;;;6100241;23;20452;-92
2023/08/11 01:00:45;;;;;;;0.10;0.10;;;;;;;;;;6076332;23;20018;-92
2023/08/11 01:03:11;;;;;;;0.20;0.20;;;;;;;;;;6100750;23;20018;-92
2023/08/11 01:05:39;;;;;;;0.10;0.10;;;;;;;;;;6126437;23;20014;-92
2023/08/11 01:08:12;;;;;;;0.10;0.10;;;;;;;;;;6123843;23;20068;-91
2023/08/11 01:10:49;;;;;;;0.10;0.10;;;;;;;;;;6149248;23;20024;-91
2023/08/11 01:13:19;;;;;;;0.10;0.10;;;;;;;;;;6075925;23;20022;-92
2023/08/11 01:15:46;;;;;;;0.10;0.10;;;;;;;;;;6124407;23;20061;-92
2023/08/11 01:18:12;;;;;;;0.10;0.10;;;;;;;;;;6124705;23;20024;-91
2023/08/11 01:20:39;;;;;;;0.10;0.10;;;;;;;;;;6124798;23;20514;-92
2023/08/11 01:23:05;;;;;;;0.10;0.10;;;;;;;;;;6124182;23;20305;-92
2023/08/11 01:25:31;;;;;;;0.10;0.10;;;;;;;;;;6124388;23;20456;-92
2023/08/11 01:27:58;;;;;;;0.10;0.10;;;;;;;;;;6100135;23;20021;-91
2023/08/11 01:30:24;;;;;;;0.10;0.10;;;;;;;;;;6075729;23;20060;-92
2023/08/11 01:32:51;;;;;;;0.10;0.10;;;;;;;;;;6124244;23;20073;-91
2023/08/11 01:35:18;;;;;;;0.10;0.10;;;;;;;;;;6100477;23;20476;-92
2023/08/11 01:37:44;;;;;;;0.10;0.10;;;;;;;;;;6124518;23;20018;-93
2023/08/11 01:40:10;;;;;;;0.10;0.10;;;;;;;;;;6124823;23;20025;-91
2023/08/11 01:42:40;;;;;;;0.10;0.10;;;;;;;;;;6076063;23;20014;-92
2023/08/11 01:45:06;;;;;;;0.10;0.10;;;;;;;;;;6076162;23;20014;-92
2023/08/11 01:47:32;;;;;;;0.10;0.10;;;;;;;;;;6124280;23;20468;-92
2023/08/11 01:49:58;;;;;;;0.10;0.10;;;;;;;;;;6100422;23;20010;-92
2023/08/11 01:52:24;;;;;;;0.10;0.10;;;;;;;;;;6124164;23;20424;-91
2023/08/11 01:54:50;;;;;;;0.10;0.10;;;;;;;;;;6099918;23;20079;-91
2023/08/11 01:57:16;;;;;;;0.10;0.10;;;;;;;;;;6123999;23;20254;-91
2023/08/11 01:59:42;;;;;;;0.10;0.10;;;;;;;;;;6075575;23;20021;-90
2023/08/11 02:02:08;;;;;;;0.10;0.10;;;;;;;;;;6125554;23;20478;-91
2023/08/11 02:04:34;;;;;;;0.10;0.10;;;;;;;;;;6123418;23;20021;-90
2023/08/11 02:07:00;;;;;;;0.10;0.10;;;;;;;;;;6123434;23;20017;-91
2023/08/11 02:09:26;;;;;;;0.10;0.10;;;;;;;;;;6123330;23;20017;-91
2023/08/11 02:11:52;;;;;;;0.10;0.10;;;;;;;;;;6074700;23;20278;-90
2023/08/11 02:14:18;;;;;;;0.10;0.10;;;;;;;;;;6123687;23;20177;-90
2023/08/11 02:16:44;;;;;;;0.10;0.10;;;;;;;;;;6125011;23;20146;-91
2023/08/11 02:19:10;;;;;;;0.20;0.20;;;;;;;;;;6147627;23;20024;-91
2023/08/11 02:21:38;;;;;;;0.10;0.10;;;;;;;;;;6123440;23;20010;-90
2023/08/11 02:24:04;;;;;;;0.10;0.10;;;;;;;;;;6148083;23;20021;-90
2023/08/11 02:26:30;;;;;;;0.10;0.10;;;;;;;;;;6123662;23;20014;-91
2023/08/11 02:28:58;;;;;;;0.10;0.10;;;;;;;;;;6075376;23;20010;-91
2023/08/11 02:31:26;;;;;;;4.80;0.20;;;;;;;;;;6099579;23;20137;-91
2023/08/11 02:33:52;;;;;;;0.10;0.10;;;;;;;;;;6123353;23;20084;-91
2023/08/11 02:36:20;;;;;;;0.10;0.10;;;;;;;;;;6123663;23;20018;-92
2023/08/11 02:38:46;;;;;;;0.10;0.10;;;;;;;;;;6123519;23;20049;-91
2023/08/11 02:41:11;;;;;;;0.10;0.10;;;;;;;;;;6123520;23;20025;-91
2023/08/11 02:43:37;;;;;;;0.10;0.10;;;;;;;;;;6099343;23;20020;-89
2023/08/11 02:46:07;;;;;;;0.10;0.10;;;;;;;;;;6099139;23;20110;-91
2023/08/11 02:48:33;;;;;;;0.10;0.10;;;;;;;;;;6076002;23;20444;-91
2023/08/11 02:51:02;;;;;;;0.10;0.10;;;;;;;;;;6123667;23;20018;-91
2023/08/11 02:53:28;;;;;;;0.10;0.10;;;;;;;;;;6124973;23;20088;-90
2023/08/11 02:55:54;;;;;;;0.10;0.10;;;;;;;;;;6101590;23;20336;-92
2023/08/11 02:58:20;;;;;;;0.10;0.10;;;;;;;;;;6125196;23;20456;-91
2023/08/11 03:00:47;;;;;;;0.00;0.00;;;;;;;;;;6077110;23;20022;-91
2023/08/11 03:03:13;;;;;;;0.10;0.10;;;;;;;;;;6127006;23;20024;-90
2023/08/11 03:05:39;;;;;;;0.10;0.10;;;;;;;;;;6125089;23;20052;-91
2023/08/11 03:08:05;;;;;;;0.10;0.10;;;;;;;;;;6076687;23;20503;-91
2023/08/11 03:10:31;;;;;;;0.10;0.10;;;;;;;;;;6125441;23;20088;-91
2023/08/11 03:12:57;;;;;;;0.10;0.10;;;;;;;;;;6125094;23;20025;-91
2023/08/11 03:15:23;;;;;;;0.10;0.10;;;;;;;;;;6076841;23;20014;-91
2023/08/11 03:17:49;;;;;;;0.10;0.10;;;;;;;;;;6125226;23;20049;-92
2023/08/11 03:20:15;;;;;;;0.10;0.10;;;;;;;;;;6125174;23;20018;-92
2023/08/11 03:22:44;;;;;;;0.10;0.10;;;;;;;;;;6076993;23;20448;-92
2023/08/11 03:25:11;;;;;;;0.10;0.10;;;;;;;;;;6076988;23;20060;-92
2023/08/11 03:27:39;;;;;;;0.10;0.10;;;;;;;;;;6100839;23;20014;-93
2023/08/11 03:30:06;;;;;;;0.10;0.10;;;;;;;;;;6077331;23;20237;-92
2023/08/11 03:32:32;;;;;;;0.10;0.10;;;;;;;;;;6076679;23;20463;-90
2023/08/11 03:34:58;;;;;;;0.10;0.10;;;;;;;;;;6124968;23;20014;-91
2023/08/11 03:37:24;;;;;;;0.10;0.10;;;;;;;;;;6100322;23;20020;-91
2023/08/11 03:39:50;;;;;;;0.10;0.10;;;;;;;;;;6125166;23;20053;-91
2023/08/11 03:42:17;;;;;;;0.08;0.08;;;;;;;;;;6149822;23;20018;-91
2023/08/11 03:44:43;;;;;;;0.10;0.10;;;;;;;;;;6125325;23;20510;-92
2023/08/11 03:47:09;;;;;;;0.10;0.10;;;;;;;;;;6077142;23;20366;-92
2023/08/11 03:49:35;;;;;;;0.10;0.10;;;;;;;;;;6125500;23;20014;-93
2023/08/11 03:52:01;;;;;;;0.10;0.10;;;;;;;;;;6077001;23;20017;-92
2023/08/11 03:54:27;;;;;;;0.10;0.10;;;;;;;;;;6125314;23;20471;-91
2023/08/11 03:56:53;;;;;;;0.10;0.10;;;;;;;;;;6101102;23;20018;-91
2023/08/11 03:59:20;;;;;;;0.17;0.17;;;;;;;;;;6076620;23;20022;-92
2023/08/11 04:01:46;;;;;;;0.10;0.10;;;;;;;;;;6077370;23;20025;-92
2023/08/11 04:04:12;;;;;;;0.10;0.10;;;;;;;;;;6076391;23;20013;-92
2023/08/11 04:06:38;;;;;;;0.10;0.10;;;;;;;;;;6076665;23;20041;-91
2023/08/11 04:09:05;;;;;;;0.10;0.10;;;;;;;;;;6100964;23;20009;-91
2023/08/11 04:11:32;;;;;;;0.10;0.10;;;;;;;;;;6124887;23;20018;-91
2023/08/11 04:13:58;;;;;;;0.10;0.10;;;;;;;;;;6076819;23;20021;-91
2023/08/11 04:16:25;;;;;;;0.10;0.10;;;;;;;;;;6124708;23;20078;-91
2023/08/11 04:18:51;;;;;;;0.10;0.10;;;;;;;;;;6125099;23;20045;-91
2023/08/11 04:21:17;;;;;;;0.10;0.10;;;;;;;;;;6124894;23;20054;-92
2023/08/11 04:23:43;;;;;;;0.10;0.10;;;;;;;;;;6124810;23;20424;-91
2023/08/11 04:26:10;;;;;;;0.10;0.10;;;;;;;;;;6076428;23;20097;-92
2023/08/11 04:28:38;;;;;;;0.10;0.10;;;;;;;;;;6100888;23;20336;-91
2023/08/11 04:31:05;;;;;;;0.10;0.10;;;;;;;;;;6124386;23;20061;-91
2023/08/11 04:33:32;;;;;;;0.10;0.10;;;;;;;;;;6076446;23;20021;-92
2023/08/11 04:35:58;;;;;;;0.10;0.10;;;;;;;;;;6124824;23;20013;-91
2023/08/11 04:38:26;;;;;;;0.13;0.13;;;;;;;;;;6124751;23;20022;-91
2023/08/11 04:40:53;;;;;;;0.08;0.08;;;;;;;;;;6149330;23;20456;-93
2023/08/11 04:43:19;;;;;;;0.10;0.10;;;;;;;;;;6149069;23;20681;-91
2023/08/11 04:45:45;;;;;;;0.10;0.10;;;;;;;;;;6076300;23;20021;-91
2023/08/11 04:48:11;;;;;;;0.10;0.10;;;;;;;;;;6148670;23;20124;-92
2023/08/11 04:50:37;;;;;;;0.10;0.10;;;;;;;;;;6075731;23;20014;-92
2023/08/11 04:53:03;;;;;;;0.10;0.10;;;;;;;;;;6123750;23;20022;-91
2023/08/11 04:55:31;;;;;;;0.10;0.10;;;;;;;;;;6124296;23;20030;-91
2023/08/11 04:57:57;;;;;;;0.10;0.10;;;;;;;;;;6075960;23;20024;-90
2023/08/11 05:00:23;;;;;;;0.10;0.10;;;;;;;;;;6124083;23;20089;-91
2023/08/11 05:02:52;;;;;;;0.10;0.10;;;;;;;;;;6124508;23;20021;-91
2023/08/11 05:05:19;;;;;;;0.10;0.10;;;;;;;;;;6076211;23;20364;-91
2023/08/11 05:07:45;;;;;;;0.10;0.10;;;;;;;;;;6124035;23;20010;-90
2023/08/11 05:10:11;;;;;;;0.10;0.10;;;;;;;;;;6075673;23;20018;-90
2023/08/11 05:12:37;;;;;;;0.10;0.10;;;;;;;;;;6125200;23;20090;-91
2023/08/11 05:15:04;;;;;;;0.10;0.10;;;;;;;;;;6075387;23;20026;-92
2023/08/11 05:17:31;;;;;;;0.10;0.10;;;;;;;;;;6124366;23;20092;-92
2023/08/11 05:19:57;;;;;;;0.10;0.10;;;;;;;;;;6100258;23;20018;-92
2023/08/11 05:22:23;;;;;;;0.10;0.10;;;;;;;;;;6099801;23;20014;-92
2023/08/11 05:24:49;;;;;;;0.10;0.10;;;;;;;;;;6099917;23;20014;-93
2023/08/11 05:27:15;;;;;;;0.10;0.10;;;;;;;;;;6123926;23;20016;-92
2023/08/11 05:29:45;;;;;;;0.20;0.20;;;;;;;;;;6124541;23;20443;-92
2023/08/11 05:32:12;;;;;;;0.20;0.20;;;;;;;;;;6076273;23;20014;-93
2023/08/11 05:34:38;;;;;;;0.10;0.10;;;;;;;;;;6123506;23;20068;-93
2023/08/11 05:37:05;;;;;;;0.10;0.10;;;;;;;;;;6097775;23;20434;-91
2023/08/11 05:39:32;;;;;;;0.10;0.10;;;;;;;;;;6123835;23;20025;-90
2023/08/11 05:41:58;;;;;;;0.10;0.10;;;;;;;;;;6075138;23;20014;-91
2023/08/11 05:44:24;;;;;;;0.10;0.10;;;;;;;;;;6124056;23;20337;-90
2023/08/11 05:46:51;;;;;;;0.10;0.10;;;;;;;;;;6124138;23;20014;-90
2023/08/11 05:49:17;;;;;;;0.10;0.10;;;;;;;;;;6148283;23;20010;-92
2023/08/11 05:51:43;;;;;;;0.10;0.10;;;;;;;;;;6123662;23;20464;-91
2023/08/11 05:54:09;;;;;;;0.10;0.10;;;;;;;;;;6123260;23;20026;-90
2023/08/11 05:56:35;;;;;;;0.10;0.10;;;;;;;;;;6123741;23;20017;-91
2023/08/11 05:59:01;;;;;;;0.10;0.10;;;;;;;;;;6123224;23;20521;-90
2023/08/11 06:01:27;;;;;;;0.10;0.10;;;;;;;;;;6123256;23;20045;-90
2023/08/11 06:03:53;;;;;;;0.10;0.10;;;;;;;;;;6147732;23;20196;-91
2023/08/11 06:06:19;;;;;;;0.10;0.10;;;;;;;;;;6123207;23;20021;-91
2023/08/11 06:08:45;;;;;;;0.15;0.15;;;;;;;;;;6123215;23;20164;-91
2023/08/11 06:11:11;;;;;;;0.10;0.10;;;;;;;;;;6147498;23;20341;-92
2023/08/11 06:13:39;;;;;;;0.10;0.10;;;;;;;;;;6123703;23;20018;-91
2023/08/11 06:16:05;;;;;;;0.10;0.10;;;;;;;;;;6074741;23;20024;-92
2023/08/11 06:18:31;;;;;;;0.10;0.10;;;;;;;;;;6147972;23;20017;-91
2023/08/11 06:20:57;;;;;;;0.15;0.15;;;;;;;;;;6099155;23;20033;-91
2023/08/11 06:23:23;;;;;;;0.10;0.10;;;;;;;;;;6147975;23;20025;-91
2023/08/11 06:25:49;;;;;;;0.10;0.10;;;;;;;;;;6123212;23;20010;-91
2023/08/11 06:28:15;;;;;;;0.20;0.20;;;;;;;;;;6098444;23;20045;-92
2023/08/11 06:30:41;;;;;;;0.10;0.10;;;;;;;;;;6123435;23;20065;-93
2023/08/11 06:33:07;;;;;;;0.10;0.10;;;;;;;;;;6073697;23;20013;-91
2023/08/11 06:35:33;;;;;;;0.10;0.10;;;;;;;;;;6122534;23;20025;-91
2023/08/11 06:37:59;;;;;;;0.10;0.10;;;;;;;;;;6074690;23;20088;-91
2023/08/11 06:40:25;;;;;;;0.20;0.20;;;;;;;;;;6123531;23;20436;-92
2023/08/11 06:42:51;;;;;;;0.10;0.10;;;;;;;;;;6123038;23;20013;-90
2023/08/11 06:45:17;;;;;;;0.10;0.10;;;;;;;;;;6123203;23;20018;-91
2023/08/11 06:47:43;;;;;;;0.10;0.10;;;;;;;;;;6122989;23;20325;-92
2023/08/11 06:50:09;;;;;;;0.10;0.10;;;;;;;;;;6122855;23;20014;-92
2023/08/11 06:52:35;;;;;;;0.10;0.10;;;;;;;;;;6147357;23;20077;-92
2023/08/11 06:55:03;;;;;;;0.20;0.20;;;;;;;;;;6098862;23;20089;-89
2023/08/11 06:57:29;;;;;;;0.10;0.10;;;;;;;;;;6122824;23;20013;-92
2023/08/11 06:59:56;;;;;;;0.10;0.10;;;;;;;;;;6147499;23;20164;-90
2023/08/11 07:02:22;;;;;;;0.17;0.17;;;;;;;;;;6075181;23;20014;-91
2023/08/11 07:04:48;;;;;;;0.10;0.10;;;;;;;;;;6122690;23;20098;-91
2023/08/11 07:07:14;;;;;;;0.10;0.10;;;;;;;;;;6146923;23;20332;-90
2023/08/11 07:09:40;;;;;;;0.10;0.10;;;;;;;;;;6147323;23;20025;-91
2023/08/11 07:12:06;;;;;;;0.15;0.15;;;;;;;;;;6122874;23;20108;-90
2023/08/11 07:14:32;;;;;;;0.20;0.20;;;;;;;;;;6098882;23;20017;-90
2023/08/11 07:16:58;;;;;;;0.13;0.13;;;;;;;;;;6123108;23;20097;-91
2023/08/11 07:19:24;;;;;;;0.20;0.20;;;;;;;;;;6147588;23;20014;-92
2023/08/11 07:21:50;;;;;;;0.20;0.20;;;;;;;;;;6074217;23;20021;-92
2023/08/11 07:24:16;;;;;;;0.20;0.20;;;;;;;;;;6147598;23;20018;-94
2023/08/11 07:26:42;;;;;;;0.17;0.17;;;;;;;;;;6074771;23;20049;-91
2023/08/11 07:29:08;;;;;;;0.20;0.20;;;;;;;;;;6123059;23;20014;-91
2023/08/11 07:31:35;;;;;;;0.20;0.20;;;;;;;;;;6122864;23;20357;-93
2023/08/11 07:34:01;;;;;;;0.20;0.20;;;;;;;;;;6147091;23;20024;-92
2023/08/11 07:36:26;;;;;;;0.20;0.20;;;;;;;;;;6074781;23;20021;-91
2023/08/11 07:38:52;;;;;;;0.20;0.20;;;;;;;;;;6123231;23;20018;-92
2023/08/11 07:41:18;;;;;;;0.20;0.20;;;;;;;;;;6126369;23;20013;-90
2023/08/11 07:43:44;;;;;;;0.30;0.30;;;;;;;;;;6124655;23;20025;-93
2023/08/11 07:46:10;;;;;;;0.20;0.20;;;;;;;;;;6149308;23;20014;-91
2023/08/11 07:48:37;;;;;;;0.20;0.20;;;;;;;;;;6100148;23;20481;-91
2023/08/11 07:51:03;;;;;;;0.20;0.20;;;;;;;;;;6076379;23;20013;-90
2023/08/11 07:53:31;;;;;;;0.20;0.20;;;;;;;;;;6125125;23;20014;-91
2023/08/11 07:55:57;;;;;;;0.20;0.20;;;;;;;;;;6124697;23;20018;-91
2023/08/11 07:58:23;;;;;;;0.20;0.20;;;;;;;;;;6124578;23;20014;-92
2023/08/11 08:00:50;;;;;;;0.20;0.20;;;;;;;;;;6149223;23;20149;-92
2023/08/11 08:03:16;;;;;;;0.20;0.20;;;;;;;;;;6148799;23;20487;-92
2023/08/11 08:05:42;;;;;;;0.73;0.30;;;;;;;;;;6076383;23;20017;-92
2023/08/11 08:08:08;;;;;;;0.20;0.20;;;;;;;;;;6124390;23;20344;-91
2023/08/11 08:10:34;;;;;;;0.20;0.20;;;;;;;;;;6148941;23;20010;-92
2023/08/11 08:13:05;;;;;;;0.20;0.20;;;;;;;;;;6101876;23;20022;-94
2023/08/11 08:15:31;;;;;;;;;;;;;;;;;;6129121;23;20014;-94
2023/08/11 08:17:57;;;;;;;0.20;0.20;;;;;;;;;;6124801;23;20235;-93
2023/08/11 08:20:23;;;;;;;0.20;0.20;;;;;;;;;;6078224;23;20020;-92
2023/08/11 08:22:49;;;;;;;0.20;0.20;;;;;;;;;;6149552;23;20022;-94
2023/08/11 08:25:17;;;;;;;0.20;0.20;;;;;;;;;;6077737;23;20014;-92
2023/08/11 08:27:43;;;;;;;0.20;0.20;;;;;;;;;;6148988;23;20503;-92
2023/08/11 08:30:10;;;;;;;0.20;0.20;;;;;;;;;;6100880;23;20045;-90
2023/08/11 08:32:37;;;;;;;0.20;0.20;;;;;;;;;;6124016;23;20025;-93
2023/08/11 08:35:03;;;;;;;0.20;0.20;;;;;;;;;;6076423;23;20013;-95
2023/08/11 08:37:31;;;;;;;0.20;0.20;;;;;;;;;;6124953;23;20050;-94
2023/08/11 08:39:57;;;;;;;0.20;0.20;;;;;;;;;;6124591;23;20045;-94
2023/08/11 08:42:23;;;;;;;0.20;0.20;;;;;;;;;;6124966;23;20336;-94
2023/08/11 08:44:49;;;;;;;0.20;0.20;;;;;;;;;;6077549;23;20348;-94
2023/08/11 08:47:18;;;;;;;0.20;0.20;;;;;;;;;;6125377;23;20010;-95
2023/08/11 08:49:44;;;;;;;0.20;0.20;;;;;;;;;;6102448;23;20014;-95
2023/08/11 08:52:10;;;;;;;0.20;0.20;;;;;;;;;;6100531;23;20408;-93
2023/08/11 08:54:36;;;;;;;0.20;0.20;;;;;;;;;;6125247;23;20018;-93
2023/08/11 08:57:04;;;;;;;0.20;0.20;;;;;;;;;;6076660;23;20021;-94
2023/08/11 08:59:30;;;;;;;0.20;0.20;;;;;;;;;;6076105;23;20511;-94
2023/08/11 09:01:56;;;;;;;0.20;0.20;;;;;;;;;;6124640;23;20014;-92
2023/08/11 09:04:23;;;;;;;0.20;0.20;;;;;;;;;;6124640;23;20021;-93
2023/08/11 09:06:49;;;;;;;0.20;0.20;;;;;;;;;;6076058;23;20021;-93
2023/08/11 09:09:15;;;;;;;0.40;0.35;;;;;;;;;;6076028;23;20021;-94
2023/08/11 09:11:42;;;;;;;0.20;0.20;;;;;;;;;;6100549;23;20014;-93
2023/08/11 09:14:08;;;;;;;0.20;0.20;;;;;;;;;;6076272;23;20022;-95
2023/08/11 09:16:34;;;;;;;0.20;0.20;;;;;;;;;;6124291;23;20440;-93
2023/08/11 09:19:00;;;;;;;0.20;0.20;;;;;;;;;;6100732;23;20022;-94
2023/08/11 09:26:35;;;;;;;0.20;0.20;;;;;;;;;;6183599;23;20025;-92
2023/08/11 09:29:01;;;;;;;0.20;0.20;;;;;;;;;;6110188;23;20009;-92
2023/08/11 09:31:27;;;;;;;0.20;0.20;;;;;;;;;;6134420;23;20041;-91
2023/08/11 09:33:53;;;;;;;0.20;0.20;;;;;;;;;;6109581;23;20450;-92
2023/08/11 09:36:20;;;;;;;0.28;0.28;;;;;;;;;;6158849;23;20013;-93
2023/08/11 09:38:49;;;;;;;0.47;0.30;;;;;;;;;;6109389;23;20103;-91
2023/08/11 09:41:15;;;;;;;0.20;0.20;;;;;;;;;;6134289;23;20017;-91
2023/08/11 09:43:48;;;;;;;0.20;0.20;;;;;;;;;;6137854;23;20211;-91
2023/08/11 09:46:14;;;;;;;0.20;0.20;;;;;;;;;;6111013;23;20067;-92
2023/08/11 09:48:40;;;;;;;0.20;0.20;;;;;;;;;;6109668;23;20104;-92
2023/08/11 09:51:10;;;;;;;0.20;0.20;;;;;;;;;;6110601;23;20013;-90
2023/08/11 09:53:37;;;;;;;0.20;0.20;;;;;;;;;;6111260;23;20032;-90
2023/08/11 09:56:03;;;;;;;0.20;0.20;;;;;;;;;;6109618;23;20062;-89
2023/08/11 09:58:31;;;;;;;0.20;0.20;;;;;;;;;;6109826;23;20025;-90
2023/08/11 10:00:57;;;;;;;0.30;0.30;;;;;;;;;;6158460;23;20020;-89
2023/08/11 10:03:28;;;;;;;0.20;0.20;;;;;;;;;;6133533;23;20075;-89
2023/08/11 10:05:55;;;;;;;0.32;0.25;;;;;;;;;;6183912;23;20514;-90
2023/08/11 10:08:21;;;;;;;0.20;0.20;;;;;;;;;;6133396;23;20339;-91
2023/08/11 10:10:47;;;;;;;0.20;0.20;;;;;;;;;;6159099;23;20037;-94
2023/08/11 10:13:17;;;;;;;0.30;0.30;;;;;;;;;;6109452;23;20456;-88
2023/08/11 10:15:44;;;;;;;0.20;0.20;;;;;;;;;;6134528;23;20023;-92
2023/08/11 10:18:09;;;;;;;0.30;0.30;;;;;;;;;;6133881;23;20060;-93
2023/08/11 10:20:35;;;;;;;0.20;0.20;;;;;;;;;;6133437;23;20044;-93
2023/08/11 10:23:02;;;;;;;0.20;0.20;;;;;;;;;;6158060;23;20338;-93
2023/08/11 10:25:28;;;;;;;0.20;0.20;;;;;;;;;;6157663;23;20024;-92
2023/08/11 10:27:54;;;;;;;0.20;0.20;;;;;;;;;;6158591;23;20009;-93
2023/08/11 10:30:20;;;;;;;0.20;0.20;;;;;;;;;;6109095;23;20392;-93
2023/08/11 10:32:46;;;;;;;0.20;0.20;;;;;;;;;;6109096;23;20044;-93
2023/08/11 10:35:27;;;;;;;0.20;0.20;;;;;;;;;;6108711;23;20040;-93
2023/08/11 10:37:57;;;;;;;0.20;0.20;;;;;;;;;;6133211;23;20017;-92
2023/08/11 10:40:23;;;;;;;0.20;0.20;;;;;;;;;;6133571;23;20534;-94
2023/08/11 10:42:49;;;;;;;0.20;0.20;;;;;;;;;;6109593;23;20017;-94
2023/08/11 10:45:16;;;;;;;0.20;0.20;;;;;;;;;;6134115;23;20118;-93
2023/08/11 10:47:52;;;;;;;0.20;0.20;;;;;;;;;;6132778;23;20083;-94
2023/08/11 10:50:18;;;;;;;0.20;0.20;;;;;;;;;;6108715;23;20469;-91
2023/08/11 10:52:44;;;;;;;0.20;0.20;;;;;;;;;;6108887;23;20009;-94
2023/08/11 10:55:10;;;;;;;0.20;0.20;;;;;;;;;;6109398;23;20051;-94
2023/08/11 10:57:36;;;;;;;0.20;0.20;;;;;;;;;;6158476;23;20017;-94
2023/08/11 11:00:03;;;;;;;0.20;0.20;;;;;;;;;;6109696;23;20032;-94
2023/08/11 11:02:32;;;;;;;0.20;0.20;;;;;;;;;;6109333;23;20087;-94
2023/08/11 11:04:58;;;;;;;0.20;0.20;;;;;;;;;;6109496;23;20052;-94
2023/08/11 11:07:26;;;;;;;0.20;0.20;;;;;;;;;;6109694;23;20462;-94
2023/08/11 11:09:52;;;;;;;0.20;0.20;;;;;;;;;;6109801;23;20065;-95
2023/08/11 11:12:18;;;;;;;0.20;0.20;;;;;;;;;;6140480;23;20252;-93
2023/08/11 11:14:44;;;;;;;0.20;0.20;;;;;;;;;;6158922;23;20046;-93
2023/08/11 11:17:10;;;;;;;0.20;0.20;;;;;;;;;;6160538;23;20424;-94
2023/08/11 11:19:36;;;;;;;0.20;0.20;;;;;;;;;;6134916;23;20013;-92
2023/08/11 11:22:02;;;;;;;0.20;0.20;;;;;;;;;;6134962;23;20126;-93
2023/08/11 11:24:28;;;;;;;0.20;0.20;;;;;;;;;;6135026;23;20108;-93
2023/08/11 11:26:54;;;;;;;0.20;0.20;;;;;;;;;;6135191;23;20135;-92
2023/08/11 11:29:24;;;;;;;0.20;0.20;;;;;;;;;;6159322;23;20415;-91
2023/08/11 11:31:50;;;;;;;0.20;0.20;;;;;;;;;;6111491;23;20016;-92
2023/08/11 11:34:17;;;;;;;0.20;0.20;;;;;;;;;;6159345;23;20029;-91
2023/08/11 11:36:43;;;;;;;0.20;0.20;;;;;;;;;;6159719;23;20092;-92
2023/08/11 11:39:09;;;;;;;0.20;0.20;;;;;;;;;;6159887;23;20017;-91
2023/08/11 11:41:35;;;;;;;0.20;0.20;;;;;;;;;;6135345;23;20121;-91
2023/08/11 11:44:01;;;;;;;0.20;0.20;;;;;;;;;;6159375;23;20036;-91
2023/08/11 11:46:27;;;;;;;0.20;0.20;;;;;;;;;;6110645;23;20025;-91
2023/08/11 11:48:54;;;;;;;0.20;0.20;;;;;;;;;;6110833;23;20017;-91
2023/08/11 11:51:26;;;;;;;0.20;0.20;;;;;;;;;;6110245;23;20064;-91
2023/08/11 11:54:10;;;;;;;0.20;0.20;;;;;;;;;;6110341;23;20096;-91
2023/08/11 11:56:48;;;;;;;0.20;0.20;;;;;;;;;;6137891;23;20017;-94
2023/08/11 11:59:14;;;;;;;0.20;0.20;;;;;;;;;;6110871;23;20052;-90
2023/08/11 12:01:42;;;;;;;0.15;0.15;;;;;;;;;;6158841;23;20016;-91
2023/08/11 12:04:08;;;;;;;0.20;0.20;;;;;;;;;;6134624;23;20458;-91
2023/08/11 12:06:33;;;;;;;0.20;0.20;;;;;;;;;;6158718;23;20008;-91
2023/08/11 12:09:05;;;;;;;0.20;0.20;;;;;;;;;;6134061;23;20017;-92
2023/08/11 12:11:31;;;;;;;0.20;0.20;;;;;;;;;;6109897;23;20013;-91
2023/08/11 12:13:58;;;;;;;0.20;0.20;;;;;;;;;;6159197;23;20009;-90
2023/08/11 12:16:24;;;;;;;0.20;0.20;;;;;;;;;;6134117;23;20052;-88
2023/08/11 12:18:50;;;;;;;0.20;0.20;;;;;;;;;;6160022;23;20089;-93
2023/08/11 12:21:19;;;;;;;0.32;0.32;;;;;;;;;;6109924;23;20013;-92
2023/08/11 12:23:46;;;;;;;0.20;0.20;;;;;;;;;;6133934;23;20021;-92
2023/08/11 12:26:12;;;;;;;0.20;0.20;;;;;;;;;;6133906;23;20336;-92
2023/08/11 12:28:39;;;;;;;0.20;0.20;;;;;;;;;;6110303;23;20083;-94
2023/08/11 12:31:05;;;;;;;0.20;0.20;;;;;;;;;;6110404;23;20440;-93
2023/08/11 12:33:32;;;;;;;0.20;0.20;;;;;;;;;;6110245;23;20513;-93
2023/08/11 12:35:59;;;;;;;0.20;0.20;;;;;;;;;;6134538;23;20025;-92
2023/08/11 12:38:25;;;;;;;0.20;0.20;;;;;;;;;;6185137;23;20017;-93
2023/08/11 12:40:51;;;;;;;0.20;0.20;;;;;;;;;;6109690;23;20019;-91
2023/08/11 12:43:17;;;;;;;0.20;0.20;;;;;;;;;;6134496;23;20017;-93
2023/08/11 12:45:44;;;;;;;0.20;0.20;;;;;;;;;;6134407;23;20017;-92
2023/08/11 12:48:10;;;;;;;0.20;0.20;;;;;;;;;;6110369;23;20084;-93
2023/08/11 12:50:36;;;;;;;0.20;0.20;;;;;;;;;;6109382;23;20079;-93
2023/08/11 12:53:04;;;;;;;0.57;0.30;;;;;;;;;;6109836;23;20020;-91
2023/08/11 12:55:30;;;;;;;0.20;0.20;;;;;;;;;;6134649;23;20017;-92
2023/08/11 12:57:56;;;;;;;0.20;0.20;;;;;;;;;;6133901;23;20095;-91
2023/08/11 13:00:23;;;;;;;0.20;0.20;;;;;;;;;;6109169;23;20019;-90
2023/08/11 13:02:49;;;;;;;0.20;0.20;;;;;;;;;;6133814;23;20043;-90
2023/08/11 13:05:15;;;;;;;0.20;0.20;;;;;;;;;;6108961;23;20312;-90
2023/08/11 13:07:41;;;;;;;0.22;0.22;;;;;;;;;;6133785;23;20020;-93
2023/08/11 13:10:10;;;;;;;0.20;0.20;;;;;;;;;;6134089;23;20009;-92
2023/08/11 13:12:36;;;;;;;0.20;0.20;;;;;;;;;;6159272;23;20020;-92
2023/08/11 13:15:02;;;;;;;0.20;0.20;;;;;;;;;;6158699;23;20048;-91
2023/08/11 13:17:28;;;;;;;0.20;0.20;;;;;;;;;;6109048;23;20312;-92
2023/08/11 13:19:54;;;;;;;0.20;0.20;;;;;;;;;;6158389;23;20447;-92
2023/08/11 13:22:20;;;;;;;0.20;0.20;;;;;;;;;;6133955;23;20024;-93
2023/08/11 13:24:46;;;;;;;0.20;0.20;;;;;;;;;;6103884;23;20524;-92
2023/08/11 13:27:12;;;;;;;0.20;0.20;;;;;;;;;;6128875;23;20020;-93
2023/08/11 13:29:38;;;;;;;0.20;0.20;;;;;;;;;;6104463;23;20010;-93
2023/08/11 13:32:04;;;;;;;0.20;0.20;;;;;;;;;;6128941;23;20027;-92
2023/08/11 13:34:30;;;;;;;0.20;0.20;;;;;;;;;;6104363;23;20028;-93
2023/08/11 13:36:57;;;;;;;0.20;0.20;;;;;;;;;;6103709;23;20009;-92
2023/08/11 13:39:23;;;;;;;0.17;0.17;;;;;;;;;;6104515;23;20347;-93
2023/08/11 13:41:49;;;;;;;0.20;0.20;;;;;;;;;;6104614;23;20092;-92
2023/08/11 13:44:15;;;;;;;0.20;0.20;;;;;;;;;;6104279;23;20012;-92
2023/08/11 13:46:41;;;;;;;0.20;0.20;;;;;;;;;;6128808;23;20020;-92
2023/08/11 13:49:07;;;;;;;0.20;0.20;;;;;;;;;;6129053;23;20014;-92
2023/08/11 13:51:33;;;;;;;0.20;0.20;;;;;;;;;;6104316;23;20389;-92
2023/08/11 13:54:03;;;;;;;0.20;0.20;;;;;;;;;;6129104;23;20021;-92
2023/08/11 13:56:29;;;;;;;0.20;0.20;;;;;;;;;;6104285;23;20021;-91
2023/08/11 13:58:55;;;;;;;0.20;0.20;;;;;;;;;;6105299;23;20076;-91
2023/08/11 14:01:21;;;;;;;0.20;0.20;;;;;;;;;;6104168;23;20076;-94
2023/08/11 14:03:47;;;;;;;0.20;0.20;;;;;;;;;;6104270;23;20096;-93
2023/08/11 14:06:13;;;;;;;0.20;0.20;;;;;;;;;;6104562;23;20083;-94
2023/08/11 14:08:40;;;;;;;0.20;0.20;;;;;;;;;;6104319;23;20101;-92
2023/08/11 14:11:06;;;;;;;0.20;0.20;;;;;;;;;;6153437;23;20013;-94
2023/08/11 14:13:32;;;;;;;0.20;0.20;;;;;;;;;;6103872;23;20009;-94
2023/08/11 14:15:58;;;;;;;0.20;0.20;;;;;;;;;;6129016;23;20035;-90
2023/08/11 14:21:00;;;;;;;0.20;0.20;;;;;;;;;;6181192;23;20025;-92
2023/08/11 14:23:26;;;;;;;0.20;0.20;;;;;;;;;;6134290;23;20063;-92
2023/08/11 14:25:52;;;;;;;0.20;0.20;;;;;;;;;;6158061;23;20021;-92
2023/08/11 14:28:18;;;;;;;0.20;0.20;;;;;;;;;;6109555;23;20423;-92
2023/08/11 14:30:44;;;;;;;0.20;0.20;;;;;;;;;;6158414;23;20040;-94
2023/08/11 14:33:10;;;;;;;0.28;0.28;;;;;;;;;;6134137;23;20013;-92
2023/08/11 14:35:39;;;;;;;0.20;0.20;;;;;;;;;;6133741;23;20024;-92
2023/08/11 14:38:05;;;;;;;0.20;0.20;;;;;;;;;;6133791;23;20012;-92
2023/08/11 14:40:31;;;;;;;0.20;0.20;;;;;;;;;;6133756;23;20471;-92
2023/08/11 14:42:58;;;;;;;0.20;0.20;;;;;;;;;;6133688;23;20092;-92
2023/08/11 14:45:24;;;;;;;0.20;0.20;;;;;;;;;;6133398;23;20013;-92
2023/08/11 14:47:50;;;;;;;0.20;0.20;;;;;;;;;;6134573;23;20009;-93